Scf Explorer — WDE2863 — position and weather

sailwx.info

Track history (hours):
 
Tides and Currents Weather Stations Pressure Air Temp Water Temp Dewpoint Dewpoint Depression Visibility Wind Speed Wind Dir Waves Ship Positions

Scf Explorer

Owner: SCF Waxler Marine LLC, St Rose, LA. More information available from US FCC via Universal Licensing System and Coast Guard Vessel Documentation Center.

Last reported at 2015-Mar-30 13:33 UTC. Time now 2015-Apr-01 16:40 UTC.
Position N 29°36' W 090°58'.

Length 35 m; draft 2.3 m.

Type: Ship (hazmat cat B). MMSI: 367330620.

Date/timePositionNaut miles runAvg speedWind from/ knotsBaromVisibWave heightAir tempDewpointWater temp
2015-Mar-30 13:33N 29°36' W 090°58'6 6.0
2015-Mar-30 12:31N 29°32' W 090°52'6 6.3
2015-Mar-30 11:33N 29°33' W 090°45'4 3.9
2015-Mar-30 10:33N 29°36' W 090°43'1 0.7
2015-Mar-30 09:33N 29°37' W 090°42'2 1.9
2015-Mar-30 08:33N 29°36' W 090°40'4 4.3
2015-Mar-30 07:33N 29°35' W 090°35'39 1.9
2015-Mar-29 11:04N 29°55' W 089°57'0 0.0
2015-Mar-29 10:26N 29°55' W 089°57'0 0.0
2015-Mar-29 09:25N 29°55' W 089°57'0 0.0
2015-Mar-29 08:04N 29°55' W 089°57'0 0.0
2015-Mar-29 06:32N 29°55' W 089°57'0 0.0
2015-Mar-29 05:26N 29°55' W 089°57'0 0.0
2015-Mar-29 04:33N 29°55' W 089°57'0 0.0
2015-Mar-29 02:31N 29°55' W 089°57'0 0.1
2015-Mar-29 01:31N 29°55' W 089°57'6 6.2
2015-Mar-29 00:34N 29°57' W 090°04'6 0.1
2015-Mar-27 08:33N 29°57' W 090°10'2 1.9
2015-Mar-27 07:33N 29°56' W 090°08'4 4.0
2015-Mar-27 06:30N 29°56' W 090°04'3 3.3
2015-Mar-27 05:33N 29°56' W 090°00'33 0.9
2015-Mar-25 16:06N 29°33' W 090°28'3 5.1
2015-Mar-25 15:33N 29°34' W 090°31'5 5.0
2015-Mar-25 14:33N 29°35' W 090°37'1 1.4
2015-Mar-25 13:33N 29°35' W 090°39'2 2.2
2015-Mar-25 12:33N 29°36' W 090°41'1 1.4
2015-Mar-25 11:33N 29°37' W 090°42'3 3.4
2015-Mar-25 10:33N 29°34' W 090°44'5 4.8
2015-Mar-25 09:33N 29°32' W 090°50'  
Track history (hours):
 
Tides and Currents Weather Stations Pressure Air Temp Water Temp Dewpoint Dewpoint Depression Visibility Wind Speed Wind Dir Waves Ship Positions

Scf Explorer

Owner: SCF Waxler Marine LLC, St Rose, LA. More information available from US FCC via Universal Licensing System and Coast Guard Vessel Documentation Center.

Last reported at 2015-Mar-30 13:33 UTC. Time now 2015-Apr-01 16:40 UTC.
Position N 29°36' W 090°58'.

Length 35 m; draft 2.3 m.

Type: Ship (hazmat cat B). MMSI: 367330620.

Date/timePositionNaut miles runAvg speedWind from/ knotsBaromVisibWave heightAir tempDewpointWater temp
2015-Mar-30 13:33N 29°36' W 090°58'6 6.0
2015-Mar-30 12:31N 29°32' W 090°52'6 6.3
2015-Mar-30 11:33N 29°33' W 090°45'4 3.9
2015-Mar-30 10:33N 29°36' W 090°43'1 0.7
2015-Mar-30 09:33N 29°37' W 090°42'2 1.9
2015-Mar-30 08:33N 29°36' W 090°40'4 4.3
2015-Mar-30 07:33N 29°35' W 090°35'39 1.9
2015-Mar-29 11:04N 29°55' W 089°57'0 0.0
2015-Mar-29 10:26N 29°55' W 089°57'0 0.0
2015-Mar-29 09:25N 29°55' W 089°57'0 0.0
2015-Mar-29 08:04N 29°55' W 089°57'0 0.0
2015-Mar-29 06:32N 29°55' W 089°57'0 0.0
2015-Mar-29 05:26N 29°55' W 089°57'0 0.0
2015-Mar-29 04:33N 29°55' W 089°57'0 0.0
2015-Mar-29 02:31N 29°55' W 089°57'0 0.1
2015-Mar-29 01:31N 29°55' W 089°57'6 6.2
2015-Mar-29 00:34N 29°57' W 090°04'6 0.1
2015-Mar-27 08:33N 29°57' W 090°10'2 1.9
2015-Mar-27 07:33N 29°56' W 090°08'4 4.0
2015-Mar-27 06:30N 29°56' W 090°04'3 3.3
2015-Mar-27 05:33N 29°56' W 090°00'33 0.9
2015-Mar-25 16:06N 29°33' W 090°28'3 5.1
2015-Mar-25 15:33N 29°34' W 090°31'5 5.0
2015-Mar-25 14:33N 29°35' W 090°37'1 1.4
2015-Mar-25 13:33N 29°35' W 090°39'2 2.2
2015-Mar-25 12:33N 29°36' W 090°41'1 1.4
2015-Mar-25 11:33N 29°37' W 090°42'3 3.4
2015-Mar-25 10:33N 29°34' W 090°44'5 4.8
2015-Mar-25 09:33N 29°32' W 090°50'  

Dump ship's entire track history